sensor_id;sensor_type;location;lat;lon;timestamp;pressure;altitude;pressure_sealevel;temperature;humidity
17772;BME280;9010;32.624;-96.938;2022-11-10T00:00:23;99160.19;;;23.35;100.00
17772;BME280;9010;32.624;-96.938;2022-11-10T00:02:51;99162.50;;;23.30;100.00
17772;BME280;9010;32.624;-96.938;2022-11-10T00:05:19;99161.00;;;23.36;100.00
17772;BME280;9010;32.624;-96.938;2022-11-10T00:07:48;99153.09;;;23.18;100.00
17772;BME280;9010;32.624;-96.938;2022-11-10T00:10:18;99155.94;;;23.17;100.00
17772;BME280;9010;32.624;-96.938;2022-11-10T00:12:46;99154.59;;;23.13;100.00
17772;BME280;9010;32.624;-96.938;2022-11-10T00:15:14;99151.53;;;23.08;100.00
17772;BME280;9010;32.624;-96.938;2022-11-10T00:18:00;99152.53;;;22.99;100.00
17772;BME280;9010;32.624;-96.938;2022-11-10T00:20:29;99152.13;;;22.94;100.00
17772;BME280;9010;32.624;-96.938;2022-11-10T00:22:57;99155.13;;;22.90;100.00
17772;BME280;9010;32.624;-96.938;2022-11-10T00:25:27;99155.81;;;22.84;100.00
17772;BME280;9010;32.624;-96.938;2022-11-10T00:27:57;99151.56;;;22.82;100.00
17772;BME280;9010;32.624;-96.938;2022-11-10T00:30:25;99158.22;;;22.70;100.00
17772;BME280;9010;32.624;-96.938;2022-11-10T00:32:54;99155.31;;;22.63;100.00
17772;BME280;9010;32.624;-96.938;2022-11-10T00:35:22;99156.19;;;22.64;100.00
17772;BME280;9010;32.624;-96.938;2022-11-10T00:37:50;99150.94;;;22.62;100.00
17772;BME280;9010;32.624;-96.938;2022-11-10T00:40:18;99150.25;;;22.60;100.00
17772;BME280;9010;32.624;-96.938;2022-11-10T00:42:48;99152.63;;;22.63;100.00
17772;BME280;9010;32.624;-96.938;2022-11-10T00:45:17;99151.56;;;22.56;100.00
17772;BME280;9010;32.624;-96.938;2022-11-10T00:47:45;99151.72;;;22.55;100.00
17772;BME280;9010;32.624;-96.938;2022-11-10T00:50:14;99149.84;;;22.47;100.00
17772;BME280;9010;32.624;-96.938;2022-11-10T00:52:42;99148.09;;;22.38;100.00
17772;BME280;9010;32.624;-96.938;2022-11-10T00:55:11;99143.97;;;22.44;100.00
17772;BME280;9010;32.624;-96.938;2022-11-10T00:57:39;99145.50;;;22.28;100.00
17772;BME280;9010;32.624;-96.938;2022-11-10T01:00:10;99136.75;;;22.18;100.00
17772;BME280;9010;32.624;-96.938;2022-11-10T01:02:38;99136.84;;;22.09;100.00
17772;BME280;9010;32.624;-96.938;2022-11-10T01:05:07;99143.25;;;22.16;100.00
17772;BME280;9010;32.624;-96.938;2022-11-10T01:07:35;99144.56;;;22.12;100.00
17772;BME280;9010;32.624;-96.938;2022-11-10T01:10:04;99143.03;;;22.09;100.00
17772;BME280;9010;32.624;-96.938;2022-11-10T01:12:33;99145.16;;;22.06;100.00
17772;BME280;9010;32.624;-96.938;2022-11-10T01:15:01;99141.88;;;22.12;100.00
17772;BME280;9010;32.624;-96.938;2022-11-10T01:17:31;99142.19;;;22.09;100.00
17772;BME280;9010;32.624;-96.938;2022-11-10T01:19:59;99134.41;;;21.98;100.00
17772;BME280;9010;32.624;-96.938;2022-11-10T01:22:28;99136.41;;;21.96;100.00
17772;BME280;9010;32.624;-96.938;2022-11-10T01:24:57;99146.94;;;21.97;100.00
17772;BME280;9010;32.624;-96.938;2022-11-10T01:27:25;99136.72;;;21.93;100.00
17772;BME280;9010;32.624;-96.938;2022-11-10T01:29:53;99138.44;;;21.84;100.00
17772;BME280;9010;32.624;-96.938;2022-11-10T01:32:21;99136.25;;;21.80;100.00
17772;BME280;9010;32.624;-96.938;2022-11-10T01:34:51;99143.56;;;21.77;100.00
17772;BME280;9010;32.624;-96.938;2022-11-10T01:37:19;99145.63;;;21.84;100.00
17772;BME280;9010;32.624;-96.938;2022-11-10T01:39:48;99144.94;;;21.82;100.00
17772;BME280;9010;32.624;-96.938;2022-11-10T01:42:23;99135.91;;;21.83;100.00
17772;BME280;9010;32.624;-96.938;2022-11-10T01:45:29;99133.56;;;21.80;100.00
17772;BME280;9010;32.624;-96.938;2022-11-10T01:48:05;99125.84;;;21.76;100.00
17772;BME280;9010;32.624;-96.938;2022-11-10T01:50:37;99133.56;;;21.80;100.00
17772;BME280;9010;32.624;-96.938;2022-11-10T01:53:10;99136.53;;;21.94;100.00
17772;BME280;9010;32.624;-96.938;2022-11-10T01:55:42;99141.09;;;21.94;100.00
17772;BME280;9010;32.624;-96.938;2022-11-10T01:58:13;99140.94;;;21.86;100.00
17772;BME280;9010;32.624;-96.938;2022-11-10T02:00:43;99140.44;;;21.82;100.00
17772;BME280;9010;32.624;-96.938;2022-11-10T02:03:15;99130.34;;;21.76;100.00
17772;BME280;9010;32.624;-96.938;2022-11-10T02:05:48;99139.13;;;21.68;100.00
17772;BME280;9010;32.624;-96.938;2022-11-10T02:08:18;99154.88;;;21.71;100.00
17772;BME280;9010;32.624;-96.938;2022-11-10T02:10:46;99152.06;;;21.73;100.00
17772;BME280;9010;32.624;-96.938;2022-11-10T02:13:14;99153.81;;;21.64;100.00
17772;BME280;9010;32.624;-96.938;2022-11-10T02:15:42;99160.06;;;21.55;100.00
17772;BME280;9010;32.624;-96.938;2022-11-10T02:18:11;99157.16;;;21.49;100.00
17772;BME280;9010;32.624;-96.938;2022-11-10T02:20:45;99158.47;;;21.45;100.00
17772;BME280;9010;32.624;-96.938;2022-11-10T02:25:58;99161.69;;;21.48;100.00
17772;BME280;9010;32.624;-96.938;2022-11-10T02:28:27;99163.25;;;21.41;100.00
17772;BME280;9010;32.624;-96.938;2022-11-10T02:30:55;99158.81;;;21.32;100.00
17772;BME280;9010;32.624;-96.938;2022-11-10T02:33:23;99158.13;;;21.30;100.00
17772;BME280;9010;32.624;-96.938;2022-11-10T02:35:53;99161.41;;;21.24;100.00
17772;BME280;9010;32.624;-96.938;2022-11-10T02:38:21;99167.44;;;21.26;100.00
17772;BME280;9010;32.624;-96.938;2022-11-10T02:40:50;99160.97;;;21.46;100.00
17772;BME280;9010;32.624;-96.938;2022-11-10T02:43:18;99159.00;;;21.48;100.00
17772;BME280;9010;32.624;-96.938;2022-11-10T02:45:46;99160.66;;;21.49;100.00
17772;BME280;9010;32.624;-96.938;2022-11-10T02:48:15;99158.56;;;21.70;100.00
17772;BME280;9010;32.624;-96.938;2022-11-10T02:50:43;99155.59;;;21.73;100.00
17772;BME280;9010;32.624;-96.938;2022-11-10T02:53:13;99151.50;;;21.69;100.00
17772;BME280;9010;32.624;-96.938;2022-11-10T02:55:41;99148.47;;;21.64;100.00
17772;BME280;9010;32.624;-96.938;2022-11-10T02:58:10;99155.47;;;21.65;100.00
17772;BME280;9010;32.624;-96.938;2022-11-10T03:00:38;99151.50;;;21.69;100.00
17772;BME280;9010;32.624;-96.938;2022-11-10T03:03:06;99151.50;;;21.69;100.00
17772;BME280;9010;32.624;-96.938;2022-11-10T03:05:34;99151.91;;;21.74;100.00
17772;BME280;9010;32.624;-96.938;2022-11-10T03:08:03;99143.47;;;21.52;100.00
17772;BME280;9010;32.624;-96.938;2022-11-10T03:10:33;99146.38;;;21.41;100.00
17772;BME280;9010;32.624;-96.938;2022-11-10T03:13:02;99146.09;;;21.61;100.00
17772;BME280;9010;32.624;-96.938;2022-11-10T03:15:30;99142.81;;;21.67;100.00
17772;BME280;9010;32.624;-96.938;2022-11-10T03:18:03;99139.88;;;21.61;100.00
17772;BME280;9010;32.624;-96.938;2022-11-10T03:20:31;99137.28;;;21.51;100.00
17772;BME280;9010;32.624;-96.938;2022-11-10T03:23:01;99143.34;;;21.53;100.00
17772;BME280;9010;32.624;-96.938;2022-11-10T03:25:30;99144.00;;;21.55;100.00
17772;BME280;9010;32.624;-96.938;2022-11-10T03:28:00;99135.59;;;21.50;100.00
17772;BME280;9010;32.624;-96.938;2022-11-10T03:30:28;99145.47;;;21.50;100.00
17772;BME280;9010;32.624;-96.938;2022-11-10T03:32:56;99135.06;;;21.47;100.00
17772;BME280;9010;32.624;-96.938;2022-11-10T03:35:25;99137.06;;;21.45;100.00
17772;BME280;9010;32.624;-96.938;2022-11-10T03:37:53;99132.31;;;21.39;100.00
17772;BME280;9010;32.624;-96.938;2022-11-10T03:40:22;99131.75;;;21.35;100.00
17772;BME280;9010;32.624;-96.938;2022-11-10T03:42:50;99133.00;;;21.41;100.00
17772;BME280;9010;32.624;-96.938;2022-11-10T03:45:20;99134.34;;;21.27;100.00
17772;BME280;9010;32.624;-96.938;2022-11-10T03:47:49;99130.16;;;21.25;100.00
17772;BME280;9010;32.624;-96.938;2022-11-10T03:50:17;99134.91;;;21.31;100.00
17772;BME280;9010;32.624;-96.938;2022-11-10T03:52:46;99122.25;;;21.23;100.00
17772;BME280;9010;32.624;-96.938;2022-11-10T03:55:16;99128.91;;;21.19;100.00
17772;BME280;9010;32.624;-96.938;2022-11-10T03:57:46;99122.88;;;21.17;100.00
17772;BME280;9010;32.624;-96.938;2022-11-10T04:00:15;99125.00;;;21.13;100.00
17772;BME280;9010;32.624;-96.938;2022-11-10T04:02:45;99122.72;;;21.18;100.00
17772;BME280;9010;32.624;-96.938;2022-11-10T04:05:13;99124.53;;;21.18;100.00
17772;BME280;9010;32.624;-96.938;2022-11-10T04:07:59;99111.84;;;21.20;100.00
17772;BME280;9010;32.624;-96.938;2022-11-10T04:10:44;99128.31;;;21.25;100.00
17772;BME280;9010;32.624;-96.938;2022-11-10T04:13:12;99120.31;;;21.25;100.00
17772;BME280;9010;32.624;-96.938;2022-11-10T04:15:57;99122.50;;;21.30;100.00
17772;BME280;9010;32.624;-96.938;2022-11-10T04:18:28;99124.50;;;21.28;100.00
17772;BME280;9010;32.624;-96.938;2022-11-10T04:20:58;99122.88;;;21.35;100.00
17772;BME280;9010;32.624;-96.938;2022-11-10T04:23:27;99120.00;;;21.28;100.00
17772;BME280;9010;32.624;-96.938;2022-11-10T04:26:01;99120.69;;;21.30;100.00
17772;BME280;9010;32.624;-96.938;2022-11-10T04:28:48;99126.16;;;21.29;100.00
17772;BME280;9010;32.624;-96.938;2022-11-10T04:31:18;99119.44;;;21.25;100.00
17772;BME280;9010;32.624;-96.938;2022-11-10T04:33:48;99118.97;;;21.29;100.00
17772;BME280;9010;32.624;-96.938;2022-11-10T04:36:18;99110.97;;;21.29;100.00
17772;BME280;9010;32.624;-96.938;2022-11-10T04:38:47;99117.72;;;21.33;100.00
17772;BME280;9010;32.624;-96.938;2022-11-10T04:41:16;99108.00;;;21.32;100.00
17772;BME280;9010;32.624;-96.938;2022-11-10T04:43:44;99108.84;;;21.33;100.00
17772;BME280;9010;32.624;-96.938;2022-11-10T04:46:19;99106.09;;;21.42;100.00
17772;BME280;9010;32.624;-96.938;2022-11-10T04:48:50;99107.25;;;21.40;100.00
17772;BME280;9010;32.624;-96.938;2022-11-10T04:51:20;99104.56;;;21.40;100.00
17772;BME280;9010;32.624;-96.938;2022-11-10T04:53:48;99095.41;;;21.42;100.00
17772;BME280;9010;32.624;-96.938;2022-11-10T04:56:18;99098.06;;;21.42;100.00
17772;BME280;9010;32.624;-96.938;2022-11-10T04:58:47;99085.38;;;21.44;100.00
17772;BME280;9010;32.624;-96.938;2022-11-10T05:01:17;99084.41;;;21.45;100.00
17772;BME280;9010;32.624;-96.938;2022-11-10T05:03:46;99071.41;;;21.50;100.00
17772;BME280;9010;32.624;-96.938;2022-11-10T05:06:17;99070.25;;;21.53;100.00
17772;BME280;9010;32.624;-96.938;2022-11-10T05:08:45;99068.56;;;21.52;100.00
17772;BME280;9010;32.624;-96.938;2022-11-10T05:11:14;99064.66;;;21.46;100.00
17772;BME280;9010;32.624;-96.938;2022-11-10T05:13:42;99063.91;;;21.36;100.00
17772;BME280;9010;32.624;-96.938;2022-11-10T05:16:11;99068.72;;;21.33;100.00
17772;BME280;9010;32.624;-96.938;2022-11-10T05:18:40;99067.25;;;21.38;100.00
17772;BME280;9010;32.624;-96.938;2022-11-10T05:21:08;99068.94;;;21.39;100.00
17772;BME280;9010;32.624;-96.938;2022-11-10T05:23:38;99070.31;;;21.43;100.00
17772;BME280;9010;32.624;-96.938;2022-11-10T05:26:11;99072.38;;;21.32;100.00
17772;BME280;9010;32.624;-96.938;2022-11-10T05:28:41;99069.56;;;21.33;100.00
17772;BME280;9010;32.624;-96.938;2022-11-10T05:31:10;99057.72;;;21.36;100.00
17772;BME280;9010;32.624;-96.938;2022-11-10T05:33:38;99064.50;;;21.30;100.00
17772;BME280;9010;32.624;-96.938;2022-11-10T05:36:08;99054.13;;;21.27;100.00
17772;BME280;9010;32.624;-96.938;2022-11-10T05:38:38;99051.97;;;21.31;100.00
17772;BME280;9010;32.624;-96.938;2022-11-10T05:41:06;99046.84;;;21.37;100.00
17772;BME280;9010;32.624;-96.938;2022-11-10T05:43:35;99038.81;;;21.37;100.00
17772;BME280;9010;32.624;-96.938;2022-11-10T05:46:03;99044.16;;;21.37;100.00
17772;BME280;9010;32.624;-96.938;2022-11-10T05:48:31;99027.31;;;21.37;100.00
17772;BME280;9010;32.624;-96.938;2022-11-10T05:50:59;99035.47;;;21.35;100.00
17772;BME280;9010;32.624;-96.938;2022-11-10T05:53:28;99033.16;;;21.40;100.00
17772;BME280;9010;32.624;-96.938;2022-11-10T05:55:57;99025.91;;;21.33;100.00
17772;BME280;9010;32.624;-96.938;2022-11-10T05:58:26;99025.84;;;21.25;100.00
17772;BME280;9010;32.624;-96.938;2022-11-10T06:00:54;99016.50;;;21.29;100.00
17772;BME280;9010;32.624;-96.938;2022-11-10T06:03:22;99023.72;;;21.28;100.00
17772;BME280;9010;32.624;-96.938;2022-11-10T06:05:50;99027.19;;;21.29;100.00
17772;BME280;9010;32.624;-96.938;2022-11-10T06:08:19;99025.06;;;21.32;100.00
17772;BME280;9010;32.624;-96.938;2022-11-10T06:10:47;99020.88;;;21.30;100.00
17772;BME280;9010;32.624;-96.938;2022-11-10T06:13:17;99025.91;;;21.33;100.00
17772;BME280;9010;32.624;-96.938;2022-11-10T06:15:45;99018.38;;;21.28;100.00
17772;BME280;9010;32.624;-96.938;2022-11-10T06:18:14;99023.41;;;21.31;100.00
17772;BME280;9010;32.624;-96.938;2022-11-10T06:20:42;99007.72;;;21.18;100.00
17772;BME280;9010;32.624;-96.938;2022-11-10T06:23:11;99015.16;;;21.25;100.00
17772;BME280;9010;32.624;-96.938;2022-11-10T06:25:40;99017.28;;;21.21;100.00
17772;BME280;9010;32.624;-96.938;2022-11-10T06:28:09;99010.72;;;21.15;100.00
17772;BME280;9010;32.624;-96.938;2022-11-10T06:30:41;99016.22;;;21.14;100.00
17772;BME280;9010;32.624;-96.938;2022-11-10T06:33:09;99009.72;;;21.16;100.00
17772;BME280;9010;32.624;-96.938;2022-11-10T06:35:37;99016.53;;;21.11;100.00
17772;BME280;9010;32.624;-96.938;2022-11-10T06:38:08;99004.13;;;21.10;100.00
17772;BME280;9010;32.624;-96.938;2022-11-10T06:40:36;99010.03;;;21.13;100.00
17772;BME280;9010;32.624;-96.938;2022-11-10T06:43:05;99011.19;;;21.11;100.00
17772;BME280;9010;32.624;-96.938;2022-11-10T06:45:33;99003.00;;;21.12;100.00
17772;BME280;9010;32.624;-96.938;2022-11-10T06:48:04;98995.97;;;21.11;100.00
17772;BME280;9010;32.624;-96.938;2022-11-10T06:50:33;99002.16;;;21.12;100.00
17772;BME280;9010;32.624;-96.938;2022-11-10T06:53:01;99005.13;;;21.09;100.00
17772;BME280;9010;32.624;-96.938;2022-11-10T06:55:30;99000.88;;;21.06;100.00
17772;BME280;9010;32.624;-96.938;2022-11-10T06:57:58;99015.28;;;21.05;100.00
17772;BME280;9010;32.624;-96.938;2022-11-10T07:00:27;99008.22;;;21.04;100.00
17772;BME280;9010;32.624;-96.938;2022-11-10T07:03:05;99003.34;;;21.00;100.00
17772;BME280;9010;32.624;-96.938;2022-11-10T07:05:34;99003.34;;;21.00;100.00
17772;BME280;9010;32.624;-96.938;2022-11-10T07:08:03;99002.56;;;20.90;100.00
17772;BME280;9010;32.624;-96.938;2022-11-10T07:10:32;99007.78;;;20.91;100.00
17772;BME280;9010;32.624;-96.938;2022-11-10T07:13:02;99007.59;;;20.93;100.00
17772;BME280;9010;32.624;-96.938;2022-11-10T07:15:31;99017.63;;;20.91;100.00
17772;BME280;9010;32.624;-96.938;2022-11-10T07:17:59;99018.91;;;20.87;100.00
17772;BME280;9010;32.624;-96.938;2022-11-10T07:20:31;99023.41;;;20.86;100.00
17772;BME280;9010;32.624;-96.938;2022-11-10T07:23:00;99015.84;;;20.82;100.00
17772;BME280;9010;32.624;-96.938;2022-11-10T07:25:30;99007.53;;;20.85;100.00
17772;BME280;9010;32.624;-96.938;2022-11-10T07:28:00;99008.91;;;20.89;100.00
17772;BME280;9010;32.624;-96.938;2022-11-10T07:30:29;99007.34;;;20.86;100.00
17772;BME280;9010;32.624;-96.938;2022-11-10T07:32:59;98992.38;;;20.76;100.00
17772;BME280;9010;32.624;-96.938;2022-11-10T07:35:30;99013.84;;;20.84;100.00
17772;BME280;9010;32.624;-96.938;2022-11-10T07:38:03;99007.56;;;20.75;100.00
17772;BME280;9010;32.624;-96.938;2022-11-10T07:40:32;99010.25;;;20.75;100.00
17772;BME280;9010;32.624;-96.938;2022-11-10T07:43:00;99007.72;;;20.74;100.00
17772;BME280;9010;32.624;-96.938;2022-11-10T07:45:29;99005.91;;;20.74;100.00
17772;BME280;9010;32.624;-96.938;2022-11-10T07:47:58;99003.84;;;20.68;100.00
17772;BME280;9010;32.624;-96.938;2022-11-10T07:50:27;99001.00;;;20.70;100.00
17772;BME280;9010;32.624;-96.938;2022-11-10T07:53:04;98996.78;;;20.67;100.00
17772;BME280;9010;32.624;-96.938;2022-11-10T07:55:33;98993.88;;;20.60;100.00
17772;BME280;9010;32.624;-96.938;2022-11-10T07:58:02;98986.19;;;20.57;100.00
17772;BME280;9010;32.624;-96.938;2022-11-10T08:00:31;98980.84;;;20.57;100.00
17772;BME280;9010;32.624;-96.938;2022-11-10T08:03:03;98983.19;;;20.60;100.00
17772;BME280;9010;32.624;-96.938;2022-11-10T08:05:32;98980.72;;;20.49;100.00
17772;BME280;9010;32.624;-96.938;2022-11-10T08:08:03;98985.97;;;20.41;100.00
17772;BME280;9010;32.624;-96.938;2022-11-10T08:10:31;98984.53;;;20.47;100.00
17772;BME280;9010;32.624;-96.938;2022-11-10T08:13:02;98984.19;;;20.59;100.00
17772;BME280;9010;32.624;-96.938;2022-11-10T08:15:31;98970.44;;;20.54;100.00
17772;BME280;9010;32.624;-96.938;2022-11-10T08:18:01;98972.41;;;20.52;100.00
17772;BME280;9010;32.624;-96.938;2022-11-10T08:20:31;98969.66;;;20.44;100.00
17772;BME280;9010;32.624;-96.938;2022-11-10T08:23:01;98968.72;;;20.36;100.00
17772;BME280;9010;32.624;-96.938;2022-11-10T08:25:34;98965.78;;;20.29;100.00
17772;BME280;9010;32.624;-96.938;2022-11-10T08:28:04;98967.34;;;20.22;100.00
17772;BME280;9010;32.624;-96.938;2022-11-10T08:30:34;98960.47;;;20.20;100.00
17772;BME280;9010;32.624;-96.938;2022-11-10T08:33:04;98954.88;;;20.13;100.00
17772;BME280;9010;32.624;-96.938;2022-11-10T08:35:35;98958.28;;;20.05;100.00
17772;BME280;9010;32.624;-96.938;2022-11-10T08:38:07;98949.72;;;20.02;100.00
17772;BME280;9010;32.624;-96.938;2022-11-10T08:40:37;98942.84;;;19.99;100.00
17772;BME280;9010;32.624;-96.938;2022-11-10T08:43:06;98944.09;;;20.05;100.00
17772;BME280;9010;32.624;-96.938;2022-11-10T08:45:35;98940.56;;;20.14;100.00
17772;BME280;9010;32.624;-96.938;2022-11-10T08:48:05;98940.84;;;20.11;100.00
17772;BME280;9010;32.624;-96.938;2022-11-10T08:50:34;98934.41;;;20.04;100.00
17772;BME280;9010;32.624;-96.938;2022-11-10T08:53:03;98936.66;;;20.08;100.00
17772;BME280;9010;32.624;-96.938;2022-11-10T08:55:32;98935.59;;;19.92;100.00
17772;BME280;9010;32.624;-96.938;2022-11-10T08:58:03;98938.56;;;19.79;100.00
17772;BME280;9010;32.624;-96.938;2022-11-10T09:00:33;98939.03;;;19.75;100.00
17772;BME280;9010;32.624;-96.938;2022-11-10T09:03:05;98934.38;;;19.67;100.00
17772;BME280;9010;32.624;-96.938;2022-11-10T09:05:34;98936.25;;;19.67;100.00
17772;BME280;9010;32.624;-96.938;2022-11-10T09:08:02;98936.38;;;19.56;100.00
17772;BME280;9010;32.624;-96.938;2022-11-10T09:10:31;98936.28;;;19.47;100.00
17772;BME280;9010;32.624;-96.938;2022-11-10T09:13:03;98938.25;;;19.45;100.00
17772;BME280;9010;32.624;-96.938;2022-11-10T09:15:32;98938.53;;;19.52;100.00
17772;BME280;9010;32.624;-96.938;2022-11-10T09:18:02;98921.69;;;19.52;100.00
17772;BME280;9010;32.624;-96.938;2022-11-10T09:20:32;98923.91;;;19.37;100.00
17772;BME280;9010;32.624;-96.938;2022-11-10T09:23:03;98927.72;;;19.34;100.00
17772;BME280;9010;32.624;-96.938;2022-11-10T09:25:33;98926.75;;;19.35;100.00
17772;BME280;9010;32.624;-96.938;2022-11-10T09:28:03;98932.63;;;19.39;100.00
17772;BME280;9010;32.624;-96.938;2022-11-10T09:30:32;98915.50;;;19.32;100.00
17772;BME280;9010;32.624;-96.938;2022-11-10T09:33:00;98919.69;;;19.54;100.00
17772;BME280;9010;32.624;-96.938;2022-11-10T09:35:28;98914.09;;;19.47;100.00
17772;BME280;9010;32.624;-96.938;2022-11-10T09:37:56;98919.19;;;19.40;100.00
17772;BME280;9010;32.624;-96.938;2022-11-10T09:40:30;98921.97;;;19.48;100.00
17772;BME280;9010;32.624;-96.938;2022-11-10T09:43:05;98912.09;;;19.59;100.00
17772;BME280;9010;32.624;-96.938;2022-11-10T09:45:41;98900.72;;;19.66;100.00
17772;BME280;9010;32.624;-96.938;2022-11-10T09:48:16;98899.41;;;19.70;100.00
17772;BME280;9010;32.624;-96.938;2022-11-10T09:50:48;98891.97;;;19.74;100.00
17772;BME280;9010;32.624;-96.938;2022-11-10T09:53:21;98896.63;;;19.72;100.00
17772;BME280;9010;32.624;-96.938;2022-11-10T09:55:54;98894.94;;;19.71;100.00
17772;BME280;9010;32.624;-96.938;2022-11-10T09:58:30;98896.66;;;19.62;100.00
17772;BME280;9010;32.624;-96.938;2022-11-10T10:01:10;98890.75;;;19.59;100.00
17772;BME280;9010;32.624;-96.938;2022-11-10T10:03:45;98884.50;;;19.40;100.00
17772;BME280;9010;32.624;-96.938;2022-11-10T10:06:15;98884.34;;;19.42;100.00
17772;BME280;9010;32.624;-96.938;2022-11-10T10:08:54;98893.34;;;19.31;100.00
17772;BME280;9010;32.624;-96.938;2022-11-10T10:11:42;98896.56;;;19.35;100.00
17772;BME280;9010;32.624;-96.938;2022-11-10T10:14:27;98890.69;;;19.41;100.00
17772;BME280;9010;32.624;-96.938;2022-11-10T10:17:01;98886.44;;;19.48;100.00
17772;BME280;9010;32.624;-96.938;2022-11-10T10:19:39;98885.72;;;19.56;100.00
17772;BME280;9010;32.624;-96.938;2022-11-10T10:22:31;98877.28;;;19.60;100.00
17772;BME280;9010;32.624;-96.938;2022-11-10T10:25:07;98871.00;;;19.52;100.00
17772;BME280;9010;32.624;-96.938;2022-11-10T10:27:40;98874.34;;;19.54;100.00
17772;BME280;9010;32.624;-96.938;2022-11-10T10:30:17;98875.78;;;19.48;100.00
17772;BME280;9010;32.624;-96.938;2022-11-10T10:32:46;98869.50;;;19.39;100.00
17772;BME280;9010;32.624;-96.938;2022-11-10T10:35:15;98867.53;;;19.32;100.00
17772;BME280;9010;32.624;-96.938;2022-11-10T10:37:47;98870.31;;;19.30;100.00
17772;BME280;9010;32.624;-96.938;2022-11-10T10:40:18;98872.88;;;19.22;100.00
17772;BME280;9010;32.624;-96.938;2022-11-10T10:42:46;98864.75;;;19.24;100.00
17772;BME280;9010;32.624;-96.938;2022-11-10T10:45:21;98866.28;;;19.26;100.00
17772;BME280;9010;32.624;-96.938;2022-11-10T10:47:51;98861.47;;;19.30;100.00
17772;BME280;9010;32.624;-96.938;2022-11-10T10:50:30;98859.66;;;19.40;100.00
17772;BME280;9010;32.624;-96.938;2022-11-10T10:53:07;98857.69;;;19.32;100.00
17772;BME280;9010;32.624;-96.938;2022-11-10T10:55:36;98857.44;;;19.26;100.00
17772;BME280;9010;32.624;-96.938;2022-11-10T10:58:16;98850.16;;;19.18;100.00
17772;BME280;9010;32.624;-96.938;2022-11-10T11:00:47;98854.19;;;19.22;100.00
17772;BME280;9010;32.624;-96.938;2022-11-10T11:03:25;98854.09;;;19.14;100.00
17772;BME280;9010;32.624;-96.938;2022-11-10T11:06:07;98855.34;;;19.10;100.00
17772;BME280;9010;32.624;-96.938;2022-11-10T11:08:54;98850.72;;;19.12;100.00
17772;BME280;9010;32.624;-96.938;2022-11-10T11:11:29;98849.16;;;19.19;100.00
17772;BME280;9010;32.624;-96.938;2022-11-10T11:14:19;98855.75;;;19.25;100.00
17772;BME280;9010;32.624;-96.938;2022-11-10T11:16:51;98851.53;;;19.22;100.00
17772;BME280;9010;32.624;-96.938;2022-11-10T11:19:22;98853.63;;;19.28;100.00
17772;BME280;9010;32.624;-96.938;2022-11-10T11:22:27;98854.66;;;19.18;100.00
17772;BME280;9010;32.624;-96.938;2022-11-10T11:25:09;98858.44;;;19.15;100.00
17772;BME280;9010;32.624;-96.938;2022-11-10T11:27:47;98867.84;;;19.00;100.00
17772;BME280;9010;32.624;-96.938;2022-11-10T11:30:19;98873.03;;;19.02;100.00
17772;BME280;9010;32.624;-96.938;2022-11-10T11:35:57;98874.47;;;18.77;100.00
17772;BME280;9010;32.624;-96.938;2022-11-10T11:38:31;98873.50;;;18.78;100.00
17772;BME280;9010;32.624;-96.938;2022-11-10T11:41:10;98872.38;;;18.80;100.00
17772;BME280;9010;32.624;-96.938;2022-11-10T11:44:06;98875.16;;;18.79;100.00
17772;BME280;9010;32.624;-96.938;2022-11-10T11:46:40;98877.28;;;18.75;100.00
17772;BME280;9010;32.624;-96.938;2022-11-10T11:49:39;98861.69;;;18.71;100.00
17772;BME280;9010;32.624;-96.938;2022-11-10T11:52:16;98866.34;;;18.69;100.00
17772;BME280;9010;32.624;-96.938;2022-11-10T11:55:09;98863.50;;;18.70;100.00
17772;BME280;9010;32.624;-96.938;2022-11-10T11:57:52;98863.69;;;18.78;100.00
17772;BME280;9010;32.624;-96.938;2022-11-10T12:00:25;98856.66;;;18.68;100.00
17772;BME280;9010;32.624;-96.938;2022-11-10T12:03:14;98858.91;;;18.63;100.00
17772;BME280;9010;32.624;-96.938;2022-11-10T12:05:56;98852.59;;;18.54;100.00
17772;BME280;9010;32.624;-96.938;2022-11-10T12:08:36;98869.28;;;18.66;100.00
17772;BME280;9010;32.624;-96.938;2022-11-10T12:11:17;98863.53;;;18.61;100.00
17772;BME280;9010;32.624;-96.938;2022-11-10T12:13:54;98858.47;;;18.58;100.00
17772;BME280;9010;32.624;-96.938;2022-11-10T12:16:26;98852.03;;;18.51;100.00
17772;BME280;9010;32.624;-96.938;2022-11-10T12:19:04;98858.63;;;18.66;100.00
17772;BME280;9010;32.624;-96.938;2022-11-10T12:21:41;98865.91;;;18.64;100.00
17772;BME280;9010;32.624;-96.938;2022-11-10T12:24:36;98858.34;;;18.69;100.00
17772;BME280;9010;32.624;-96.938;2022-11-10T12:27:12;98862.69;;;18.70;100.00
17772;BME280;9010;32.624;-96.938;2022-11-10T12:29:45;98864.09;;;18.55;100.00
17772;BME280;9010;32.624;-96.938;2022-11-10T12:32:18;98862.66;;;18.51;100.00
17772;BME280;9010;32.624;-96.938;2022-11-10T12:34:52;98856.06;;;18.35;100.00
17772;BME280;9010;32.624;-96.938;2022-11-10T12:37:25;98866.28;;;18.30;100.00
17772;BME280;9010;32.624;-96.938;2022-11-10T12:40:00;98876.63;;;18.33;100.00
17772;BME280;9010;32.624;-96.938;2022-11-10T12:42:29;98866.44;;;18.38;100.00
17772;BME280;9010;32.624;-96.938;2022-11-10T12:45:00;98869.34;;;18.45;100.00
17772;BME280;9010;32.624;-96.938;2022-11-10T12:47:34;98865.50;;;18.59;100.00
17772;BME280;9010;32.624;-96.938;2022-11-10T12:53:20;98862.00;;;18.58;100.00
17772;BME280;9010;32.624;-96.938;2022-11-10T12:55:53;98863.25;;;18.54;100.00
17772;BME280;9010;32.624;-96.938;2022-11-10T12:58:22;98868.44;;;18.56;100.00
17772;BME280;9010;32.624;-96.938;2022-11-10T13:00:56;98872.63;;;18.49;100.00
17772;BME280;9010;32.624;-96.938;2022-11-10T13:03:28;98864.88;;;18.46;100.00
17772;BME280;9010;32.624;-96.938;2022-11-10T13:05:58;98877.22;;;18.47;100.00
17772;BME280;9010;32.624;-96.938;2022-11-10T13:08:33;98881.31;;;18.51;100.00
17772;BME280;9010;32.624;-96.938;2022-11-10T13:11:05;98877.13;;;18.58;100.00